createdAt,value
2024-02-28T00:01:54.789Z,65.87
2024-02-28T00:04:23.624Z,66.31
2024-02-28T00:06:52.802Z,65.87
2024-02-28T00:09:23.135Z,65.73
2024-02-28T00:11:52.307Z,65.62
2024-02-28T00:14:21.271Z,65.83
2024-02-28T00:16:50.411Z,65.81
2024-02-28T00:19:19.711Z,65.65
2024-02-28T00:21:48.907Z,65.83
2024-02-28T00:24:17.909Z,65.54
2024-02-28T00:26:48.452Z,65.76
2024-02-28T00:29:17.310Z,65.43
2024-02-28T00:31:46.564Z,65.56
2024-02-28T00:34:15.534Z,65.75
2024-02-28T00:36:52.439Z,65.52
2024-02-28T00:39:24.984Z,65.72
2024-02-28T00:41:55.693Z,65.70
2024-02-28T00:44:24.745Z,65.64
2024-02-28T00:46:53.922Z,65.36
2024-02-28T00:49:22.830Z,65.59
2024-02-28T00:51:52.094Z,65.13
2024-02-28T00:54:22.986Z,65.54
2024-02-28T00:56:52.337Z,65.25
2024-02-28T00:59:22.507Z,65.50
2024-02-28T01:01:51.722Z,65.38
2024-02-28T01:04:20.593Z,65.33
2024-02-28T01:06:49.974Z,64.98
2024-02-28T01:09:19.188Z,65.32
2024-02-28T01:11:48.363Z,65.37
2024-02-28T01:14:17.253Z,65.28
2024-02-28T01:16:47.839Z,65.26
2024-02-28T01:19:17.744Z,65.13
2024-02-28T01:21:46.925Z,65.09
2024-02-28T01:24:15.809Z,65.12
2024-02-28T01:26:45.015Z,65.30
2024-02-28T01:29:14.024Z,65.65
2024-02-28T01:31:43.120Z,65.40
2024-02-28T01:34:13.285Z,65.27
2024-02-28T01:36:42.538Z,65.05
2024-02-28T01:39:11.430Z,65.39
2024-02-28T01:41:40.669Z,65.32
2024-02-28T01:44:10.194Z,65.22
2024-02-28T01:46:39.034Z,65.42
2024-02-28T01:49:08.462Z,65.29
2024-02-28T01:51:38.667Z,64.88
2024-02-28T01:54:07.752Z,65.25
2024-02-28T01:56:36.788Z,64.93
2024-02-28T01:59:05.943Z,65.04
2024-02-28T02:01:34.821Z,64.87
2024-02-28T02:04:04.007Z,64.95
2024-02-28T02:06:32.981Z,64.89
2024-02-28T02:09:03.597Z,64.96
2024-02-28T02:11:32.513Z,65.01
2024-02-28T02:14:01.770Z,64.92
2024-02-28T02:16:31.233Z,65.00
2024-02-28T02:19:00.577Z,64.71
2024-02-28T02:21:32.604Z,64.98
2024-02-28T02:24:03.429Z,64.59
2024-02-28T02:26:32.234Z,64.99
2024-02-28T02:29:01.398Z,64.75
2024-02-28T02:31:30.204Z,64.35
2024-02-28T02:33:59.482Z,64.92
2024-02-28T02:36:28.347Z,64.57
2024-02-28T02:38:57.692Z,64.86
2024-02-28T02:41:27.883Z,65.01
2024-02-28T02:43:58.166Z,64.87
2024-02-28T02:46:26.931Z,64.93
2024-02-28T02:48:56.166Z,64.53
2024-02-28T02:51:25.225Z,65.03
2024-02-28T02:53:55.041Z,64.92
2024-02-28T02:56:23.902Z,64.44
2024-02-28T02:58:54.512Z,64.86
2024-02-28T03:01:25.678Z,64.60
2024-02-28T03:03:54.790Z,64.78
2024-02-28T03:06:25.465Z,64.92
2024-02-28T03:08:54.838Z,64.68
2024-02-28T03:11:23.701Z,65.02
2024-02-28T03:13:54.329Z,64.90
2024-02-28T03:16:25.109Z,64.92
2024-02-28T03:18:55.005Z,64.72
2024-02-28T03:21:24.034Z,64.80
2024-02-28T03:23:53.263Z,64.45
2024-02-28T03:26:22.047Z,64.53
2024-02-28T03:28:51.203Z,64.61
2024-02-28T03:31:21.352Z,64.30
2024-02-28T03:33:50.712Z,64.52
2024-02-28T03:36:19.545Z,64.58
2024-02-28T03:38:48.754Z,64.76
2024-02-28T03:41:17.601Z,64.77
2024-02-28T03:43:46.810Z,64.81
2024-02-28T03:46:16.378Z,64.87
2024-02-28T03:48:46.907Z,64.53
2024-02-28T03:51:15.778Z,64.73
2024-02-28T03:53:44.911Z,64.71
2024-02-28T03:56:13.858Z,64.75
2024-02-28T03:58:43.043Z,65.06
2024-02-28T04:01:11.837Z,64.87
2024-02-28T04:03:41.065Z,64.52
2024-02-28T04:06:11.222Z,64.86
2024-02-28T04:08:40.316Z,64.55
2024-02-28T04:11:09.176Z,65.01
2024-02-28T04:13:38.412Z,64.66
2024-02-28T04:16:07.466Z,64.99
2024-02-28T04:18:36.638Z,64.85
2024-02-28T04:21:05.755Z,65.17
2024-02-28T04:23:36.268Z,65.10
2024-02-28T04:26:05.273Z,64.74
2024-02-28T04:28:34.412Z,66.56
2024-02-28T04:31:03.237Z,65.79
2024-02-28T04:33:32.546Z,65.31
2024-02-28T04:36:01.427Z,65.19
2024-02-28T04:38:31.160Z,65.65
2024-02-28T04:41:01.321Z,65.26
2024-02-28T04:43:30.451Z,65.52
2024-02-28T04:45:59.182Z,65.15
2024-02-28T04:48:28.432Z,67.59
2024-02-28T04:50:57.359Z,66.48
2024-02-28T04:53:26.484Z,66.26
2024-02-28T04:55:55.245Z,66.69
2024-02-28T04:58:25.782Z,65.96
2024-02-28T05:00:54.748Z,65.70
2024-02-28T05:03:26.185Z,65.00
2024-02-28T05:05:55.172Z,65.68
2024-02-28T05:08:24.282Z,65.47
2024-02-28T05:10:53.250Z,65.23
2024-02-28T05:13:23.430Z,65.04
2024-02-28T05:15:53.780Z,65.49
2024-02-28T05:18:22.997Z,65.24
2024-02-28T05:20:51.773Z,65.49
2024-02-28T05:23:20.982Z,65.18
2024-02-28T05:25:49.923Z,65.18
2024-02-28T05:28:19.128Z,65.15
2024-02-28T05:30:50.005Z,65.15
2024-02-28T05:33:21.753Z,64.99
2024-02-28T05:35:51.261Z,65.12
2024-02-28T05:38:20.372Z,64.80
2024-02-28T05:40:49.242Z,64.86
2024-02-28T05:43:18.395Z,65.37
2024-02-28T05:45:47.478Z,66.20
2024-02-28T05:48:16.753Z,65.77
2024-02-28T05:50:47.030Z,66.40
2024-02-28T05:53:16.211Z,66.19
2024-02-28T05:55:45.087Z,65.81
2024-02-28T05:58:14.177Z,65.50
2024-02-28T06:00:43.116Z,65.22
2024-02-28T06:03:12.303Z,68.19
2024-02-28T06:05:43.386Z,67.16
2024-02-28T06:08:14.268Z,66.33
2024-02-28T06:10:43.583Z,65.87
2024-02-28T06:13:12.817Z,66.90
2024-02-28T06:15:41.810Z,66.42
2024-02-28T06:18:11.119Z,65.71
2024-02-28T06:20:40.098Z,65.71
2024-02-28T06:23:13.833Z,65.59
2024-02-28T06:25:50.381Z,65.87
2024-02-28T06:28:19.629Z,65.85
2024-02-28T06:30:48.486Z,66.19
2024-02-28T06:33:17.842Z,66.08
2024-02-28T06:35:46.790Z,65.58
2024-02-28T06:38:15.964Z,65.50
2024-02-28T06:40:44.738Z,65.47
2024-02-28T06:43:15.262Z,65.24
2024-02-28T06:45:44.126Z,65.81
2024-02-28T06:48:14.209Z,65.45
2024-02-28T06:50:43.032Z,65.27
2024-02-28T06:53:12.255Z,65.30
2024-02-28T06:55:41.124Z,65.59
2024-02-28T06:58:10.335Z,65.74
2024-02-28T07:00:40.607Z,65.48
2024-02-28T07:03:09.971Z,65.66
2024-02-28T07:05:38.874Z,65.17
2024-02-28T07:08:08.467Z,65.47
2024-02-28T07:10:38.052Z,65.13
2024-02-28T07:13:07.248Z,65.34
2024-02-28T07:15:36.111Z,65.48
2024-02-28T07:18:06.919Z,65.44
2024-02-28T07:20:35.891Z,65.03
2024-02-28T07:23:05.115Z,65.49
2024-02-28T07:25:34.057Z,65.48
2024-02-28T07:28:03.743Z,65.19
2024-02-28T07:30:32.739Z,65.21
2024-02-28T07:33:02.039Z,65.41
2024-02-28T07:35:32.258Z,66.50
2024-02-28T07:38:01.368Z,66.08
2024-02-28T07:40:30.190Z,65.57
2024-02-28T07:42:59.457Z,65.51
2024-02-28T07:45:28.285Z,65.52
2024-02-28T07:47:57.541Z,65.61
2024-02-28T07:50:26.780Z,65.71
2024-02-28T07:52:57.572Z,67.00
2024-02-28T07:55:26.385Z,66.01
2024-02-28T07:57:55.704Z,66.53
2024-02-28T08:00:26.467Z,65.95
2024-02-28T08:02:55.721Z,65.81
2024-02-28T08:05:25.301Z,65.78
2024-02-28T08:07:54.551Z,66.05
2024-02-28T08:10:24.952Z,65.69
2024-02-28T08:12:54.193Z,65.59
2024-02-28T08:15:23.117Z,65.47
2024-02-28T08:17:52.330Z,65.68
2024-02-28T08:20:21.173Z,65.72
2024-02-28T08:22:50.310Z,65.45
2024-02-28T08:25:19.220Z,65.56
2024-02-28T08:27:49.844Z,65.55
2024-02-28T08:30:18.920Z,65.42
2024-02-28T08:32:48.194Z,65.71
2024-02-28T08:35:17.118Z,65.70
2024-02-28T08:37:46.201Z,65.38
2024-02-28T08:40:15.369Z,65.96
2024-02-28T08:42:44.658Z,65.56
2024-02-28T08:45:14.909Z,65.46
2024-02-28T08:47:44.252Z,65.65
2024-02-28T08:50:13.136Z,65.80
2024-02-28T08:52:42.299Z,65.51
2024-02-28T08:55:11.339Z,65.84
2024-02-28T08:57:40.735Z,65.75
2024-02-28T09:00:10.540Z,65.75
2024-02-28T09:02:41.107Z,65.73
2024-02-28T09:05:11.693Z,65.68
2024-02-28T09:07:40.916Z,66.00
2024-02-28T09:10:10.266Z,65.49
2024-02-28T09:12:39.509Z,65.87
2024-02-28T09:15:08.938Z,65.99
2024-02-28T09:17:38.051Z,67.37
2024-02-28T09:20:09.182Z,66.36
2024-02-28T09:22:38.371Z,66.27
2024-02-28T09:25:09.928Z,66.05
2024-02-28T09:27:39.690Z,67.08
2024-02-28T09:30:09.250Z,66.92
2024-02-28T09:32:38.477Z,66.99
2024-02-28T09:35:09.042Z,66.33
2024-02-28T09:37:38.998Z,66.28
2024-02-28T09:40:10.892Z,65.93
2024-02-28T09:42:40.153Z,65.83
2024-02-28T09:45:10.486Z,66.40
2024-02-28T09:47:39.656Z,65.99
2024-02-28T09:50:10.993Z,65.93
2024-02-28T09:52:40.410Z,66.05
2024-02-28T09:55:09.967Z,66.01
2024-02-28T09:57:39.145Z,65.62
2024-02-28T10:00:10.979Z,66.44
2024-02-28T10:02:40.164Z,65.98
2024-02-28T10:05:10.572Z,65.98
2024-02-28T10:07:39.696Z,65.61
2024-02-28T10:10:10.336Z,65.87
2024-02-28T10:12:42.770Z,65.87
2024-02-28T10:15:11.772Z,65.77
2024-02-28T10:17:40.959Z,65.82
2024-02-28T10:20:12.196Z,65.73
2024-02-28T10:22:41.422Z,65.90
2024-02-28T10:25:10.694Z,65.55
2024-02-28T10:27:39.975Z,65.87
2024-02-28T10:30:09.389Z,65.71
2024-02-28T10:32:39.936Z,65.57
2024-02-28T10:35:12.185Z,65.80
2024-02-28T10:37:43.731Z,65.70
2024-02-28T10:40:13.161Z,65.59
2024-02-28T10:42:42.425Z,65.64
2024-02-28T10:45:21.065Z,65.66
2024-02-28T10:47:59.133Z,65.79
2024-02-28T10:50:27.993Z,65.49
2024-02-28T10:52:58.725Z,65.76
2024-02-28T10:55:27.548Z,65.67
2024-02-28T10:58:00.255Z,65.89
2024-02-28T11:00:29.458Z,65.60
2024-02-28T11:02:59.447Z,65.81
2024-02-28T11:05:37.768Z,65.60
2024-02-28T11:08:09.995Z,65.94
2024-02-28T11:10:42.782Z,65.70
2024-02-28T11:13:12.745Z,65.93
2024-02-28T11:15:41.573Z,65.64
2024-02-28T11:18:11.469Z,65.76
2024-02-28T11:20:40.336Z,65.55
2024-02-28T11:23:10.818Z,66.00
2024-02-28T11:25:39.673Z,66.10
2024-02-28T11:28:09.159Z,66.05
2024-02-28T11:30:38.260Z,65.93
2024-02-28T11:33:09.867Z,65.70
2024-02-28T11:35:38.915Z,65.90
2024-02-28T11:38:08.615Z,65.57
2024-02-28T11:40:38.860Z,65.96
2024-02-28T11:43:08.057Z,65.51
2024-02-28T11:45:41.342Z,65.89
2024-02-28T11:48:10.655Z,65.67
2024-02-28T11:50:39.787Z,65.55
2024-02-28T11:53:09.254Z,65.47
2024-02-28T11:55:40.284Z,65.78
2024-02-28T11:58:10.058Z,65.43
2024-02-28T12:00:49.180Z,65.83
2024-02-28T12:03:22.320Z,65.63
2024-02-28T12:05:51.575Z,65.79
2024-02-28T12:08:21.248Z,65.78
2024-02-28T12:10:51.595Z,65.55
2024-02-28T12:13:20.774Z,65.70
2024-02-28T12:15:49.835Z,65.48
2024-02-28T12:18:19.056Z,65.43
2024-02-28T12:20:48.303Z,65.42
2024-02-28T12:23:19.243Z,65.55
2024-02-28T12:25:48.273Z,65.43
2024-02-28T12:28:19.088Z,65.38
2024-02-28T12:30:48.044Z,65.52
2024-02-28T12:33:17.364Z,65.52
2024-02-28T12:35:46.366Z,65.59
2024-02-28T12:38:16.730Z,65.44
2024-02-28T12:40:45.640Z,65.61
2024-02-28T12:43:15.508Z,65.61
2024-02-28T12:45:46.053Z,65.58
2024-02-28T12:48:15.567Z,65.55
2024-02-28T12:50:44.444Z,65.67
2024-02-28T12:53:13.631Z,65.64
2024-02-28T12:55:43.245Z,65.58
2024-02-28T12:58:12.453Z,65.26
2024-02-28T13:00:41.392Z,65.36
2024-02-28T13:03:12.394Z,65.64
2024-02-28T13:05:41.266Z,65.42
2024-02-28T13:08:10.434Z,65.67
2024-02-28T13:10:42.347Z,65.64
2024-02-28T13:13:12.899Z,65.82
2024-02-28T13:15:42.328Z,65.34
2024-02-28T13:18:12.991Z,65.55
2024-02-28T13:20:42.064Z,65.42
2024-02-28T13:23:11.272Z,65.37
2024-02-28T13:25:40.133Z,65.68
2024-02-28T13:28:09.578Z,65.61
2024-02-28T13:30:38.507Z,65.59
2024-02-28T13:33:07.789Z,65.27
2024-02-28T13:35:39.812Z,65.65
2024-02-28T13:38:08.973Z,65.67
2024-02-28T13:40:38.356Z,65.17
2024-02-28T13:43:08.018Z,65.55
2024-02-28T13:45:38.016Z,65.51
2024-02-28T13:48:08.448Z,65.10
2024-02-28T13:50:38.751Z,65.14
2024-02-28T13:53:07.851Z,65.42
2024-02-28T13:55:36.740Z,65.60
2024-02-28T13:58:06.286Z,65.48
2024-02-28T14:00:36.085Z,65.49
2024-02-28T14:03:06.239Z,65.18
2024-02-28T14:05:35.669Z,65.30
2024-02-28T14:08:09.189Z,65.00
2024-02-28T14:10:38.429Z,65.26
2024-02-28T14:13:07.630Z,65.41
2024-02-28T14:15:37.688Z,65.15
2024-02-28T14:18:07.367Z,65.46
2024-02-28T14:20:36.175Z,65.42
2024-02-28T14:23:06.763Z,65.25
2024-02-28T14:25:35.689Z,65.51
2024-02-28T14:28:05.122Z,65.37
2024-02-28T14:30:35.028Z,64.95
2024-02-28T14:33:07.365Z,65.34
2024-02-28T14:35:40.213Z,65.28
2024-02-28T14:38:11.772Z,65.17
2024-02-28T14:40:41.246Z,65.16
2024-02-28T14:43:10.784Z,65.31
2024-02-28T14:45:41.090Z,65.35
2024-02-28T14:48:10.414Z,65.31
2024-02-28T14:50:39.222Z,65.39
2024-02-28T14:53:08.399Z,65.40
2024-02-28T14:55:38.611Z,65.35
2024-02-28T14:58:07.881Z,65.05
2024-02-28T15:00:37.273Z,65.10
2024-02-28T15:03:06.908Z,65.35
2024-02-28T15:05:35.785Z,65.21
2024-02-28T15:08:05.169Z,65.35
2024-02-28T15:10:34.522Z,65.40
2024-02-28T15:13:05.564Z,65.16
2024-02-28T15:15:34.749Z,65.33
2024-02-28T15:18:04.074Z,65.20
2024-02-28T15:20:32.957Z,65.28
2024-02-28T15:23:02.188Z,65.26
2024-02-28T15:25:31.021Z,65.23
2024-02-28T15:28:00.405Z,65.30
2024-02-28T15:30:30.783Z,65.29
2024-02-28T15:33:00.070Z,65.47
2024-02-28T15:35:28.958Z,65.40
2024-02-28T15:37:58.127Z,65.11
2024-02-28T15:40:26.888Z,65.10
2024-02-28T15:42:56.114Z,65.34
2024-02-28T15:45:25.122Z,65.40
2024-02-28T15:47:55.662Z,65.50
2024-02-28T15:50:25.215Z,65.00
2024-02-28T15:52:54.977Z,65.17
2024-02-28T15:55:24.043Z,65.33
2024-02-28T15:57:56.466Z,64.90
2024-02-28T16:00:25.540Z,65.24
2024-02-28T16:02:56.157Z,65.39
2024-02-28T16:05:26.106Z,65.26
2024-02-28T16:07:55.857Z,64.92
2024-02-28T16:10:24.762Z,65.21
2024-02-28T16:12:54.363Z,65.25
2024-02-28T16:15:23.298Z,65.22
2024-02-28T16:17:53.553Z,65.25
2024-02-28T16:20:25.268Z,65.14
2024-02-28T16:22:54.958Z,65.14
2024-02-28T16:25:23.904Z,65.14
2024-02-28T16:27:53.066Z,65.20
2024-02-28T16:30:21.921Z,65.19
2024-02-28T16:32:51.129Z,64.91
2024-02-28T16:35:20.071Z,65.02
2024-02-28T16:37:50.749Z,65.24
2024-02-28T16:40:19.780Z,64.80
2024-02-28T16:42:49.182Z,65.04
2024-02-28T16:45:18.026Z,65.21
2024-02-28T16:47:47.300Z,64.99
2024-02-28T16:50:16.244Z,64.95
2024-02-28T16:52:45.351Z,64.93
2024-02-28T16:55:14.641Z,65.08
2024-02-28T16:57:44.012Z,64.84
2024-02-28T17:00:15.016Z,65.18
2024-02-28T17:02:44.259Z,65.16
2024-02-28T17:05:13.302Z,64.86
2024-02-28T17:07:42.576Z,65.10
2024-02-28T17:10:12.110Z,65.12
2024-02-28T17:12:42.792Z,64.96
2024-02-28T17:15:11.806Z,64.95
2024-02-28T17:17:41.001Z,64.90
2024-02-28T17:20:10.473Z,65.16
2024-02-28T17:22:40.038Z,65.04
2024-02-28T17:25:09.351Z,65.18
2024-02-28T17:27:39.888Z,65.48
2024-02-28T17:30:10.645Z,64.94
2024-02-28T17:32:39.867Z,65.15
2024-02-28T17:35:08.939Z,65.43
2024-02-28T17:37:38.678Z,64.94
2024-02-28T17:40:08.665Z,66.12
2024-02-28T17:42:37.922Z,65.92
2024-02-28T17:45:07.051Z,65.60
2024-02-28T17:47:38.683Z,65.12
2024-02-28T17:50:08.372Z,65.33
2024-02-28T17:52:40.883Z,65.13
2024-02-28T17:55:10.946Z,65.14
2024-02-28T17:57:40.267Z,65.16
2024-02-28T18:00:13.527Z,64.72
2024-02-28T18:02:44.599Z,65.30
2024-02-28T18:05:13.493Z,65.65
2024-02-28T18:07:43.302Z,66.73
2024-02-28T18:10:13.221Z,66.17
2024-02-28T18:12:42.908Z,65.76
2024-02-28T18:15:13.324Z,65.57
2024-02-28T18:17:42.624Z,65.15
2024-02-28T18:20:13.109Z,65.01
2024-02-28T18:22:42.455Z,65.12
2024-02-28T18:25:11.286Z,65.01
2024-02-28T18:27:40.807Z,65.09
2024-02-28T18:30:10.261Z,64.95
2024-02-28T18:32:39.649Z,65.19
2024-02-28T18:35:08.788Z,65.10
2024-02-28T18:37:41.324Z,65.08
2024-02-28T18:40:16.821Z,64.94
2024-02-28T18:42:46.280Z,65.02
2024-02-28T18:45:15.140Z,64.69
2024-02-28T18:47:44.381Z,65.08
2024-02-28T18:50:13.563Z,64.77
2024-02-28T18:53:02.173Z,64.99
2024-02-28T18:55:35.440Z,64.87
2024-02-28T18:58:12.722Z,64.99
2024-02-28T19:01:00.310Z,64.76
2024-02-28T19:03:29.789Z,64.63
2024-02-28T19:05:59.337Z,64.85
2024-02-28T19:08:29.803Z,64.78
2024-02-28T19:11:13.086Z,65.07
2024-02-28T19:13:43.877Z,64.81
2024-02-28T19:16:13.436Z,64.65
2024-02-28T19:18:43.144Z,65.05
2024-02-28T19:21:12.361Z,65.05
2024-02-28T19:23:44.534Z,64.78
2024-02-28T19:26:15.206Z,65.03
2024-02-28T19:28:45.465Z,65.21
2024-02-28T19:31:14.637Z,64.69
2024-02-28T19:33:44.386Z,66.19
2024-02-28T19:36:13.705Z,66.06
2024-02-28T19:38:43.823Z,65.60
2024-02-28T19:41:18.027Z,67.76
2024-02-28T19:43:47.842Z,66.71
2024-02-28T19:46:17.170Z,66.18
2024-02-28T19:48:48.889Z,66.42
2024-02-28T19:51:18.324Z,65.45
2024-02-28T19:53:47.833Z,65.08
2024-02-28T19:56:18.628Z,65.88
2024-02-28T19:58:49.364Z,66.59
2024-02-28T20:01:18.993Z,65.65
2024-02-28T20:03:53.132Z,65.27
2024-02-28T20:06:22.338Z,65.22
2024-02-28T20:08:52.325Z,64.75
2024-02-28T20:11:27.518Z,64.76
2024-02-28T20:13:58.851Z,66.16
2024-02-28T20:16:29.734Z,65.78
2024-02-28T20:18:59.345Z,66.64
2024-02-28T20:21:31.347Z,65.83
2024-02-28T20:24:01.248Z,65.53
2024-02-28T20:26:31.612Z,65.24
2024-02-28T20:29:01.299Z,64.73
2024-02-28T20:31:30.426Z,65.01
2024-02-28T20:34:02.349Z,65.03
2024-02-28T20:36:31.778Z,64.85
2024-02-28T20:39:01.491Z,65.07
2024-02-28T20:41:36.696Z,65.75
2024-02-28T20:44:06.478Z,64.93
2024-02-28T20:46:35.589Z,64.82
2024-02-28T20:49:05.159Z,64.72
2024-02-28T20:51:34.364Z,64.81
2024-02-28T20:54:05.355Z,64.79
2024-02-28T20:56:43.481Z,64.89
2024-02-28T20:59:15.054Z,64.70
2024-02-28T21:01:44.006Z,64.72
2024-02-28T21:04:15.080Z,64.54
2024-02-28T21:06:44.092Z,64.40
2024-02-28T21:09:13.333Z,64.50
2024-02-28T21:11:44.125Z,64.49
2024-02-28T21:14:13.351Z,64.40
2024-02-28T21:16:42.142Z,64.57
2024-02-28T21:19:11.423Z,64.84
2024-02-28T21:21:40.396Z,64.77
2024-02-28T21:24:12.839Z,64.57
2024-02-28T21:26:43.148Z,64.62
2024-02-28T21:29:12.404Z,64.69
2024-02-28T21:31:41.313Z,64.51
2024-02-28T21:34:10.583Z,64.64
2024-02-28T21:36:39.511Z,64.57
2024-02-28T21:39:10.091Z,64.60
2024-02-28T21:41:39.013Z,64.39
2024-02-28T21:44:09.579Z,64.44
2024-02-28T21:46:38.475Z,64.68
2024-02-28T21:49:13.338Z,64.68
2024-02-28T21:51:42.957Z,64.75
2024-02-28T21:54:12.151Z,64.49
2024-02-28T21:56:42.054Z,64.45
2024-02-28T21:59:12.780Z,65.27
2024-02-28T22:01:41.974Z,65.14
2024-02-28T22:04:12.024Z,64.78
2024-02-28T22:06:40.948Z,64.61
2024-02-28T22:09:10.143Z,65.04
2024-02-28T22:11:38.953Z,64.92
2024-02-28T22:14:08.283Z,64.98
2024-02-28T22:16:39.374Z,64.81
2024-02-28T22:19:09.835Z,64.94
2024-02-28T22:21:39.470Z,64.91
2024-02-28T22:24:09.557Z,64.43
2024-02-28T22:26:38.532Z,64.44
2024-02-28T22:29:07.677Z,64.85
2024-02-28T22:31:36.457Z,64.53
2024-02-28T22:34:07.066Z,64.82
2024-02-28T22:36:35.907Z,64.80
2024-02-28T22:39:05.583Z,64.77
2024-02-28T22:41:34.636Z,64.60
2024-02-28T22:44:03.770Z,64.71
2024-02-28T22:46:32.574Z,64.93
2024-02-28T22:49:04.756Z,64.72
2024-02-28T22:51:35.436Z,64.49
2024-02-28T22:54:04.704Z,64.63
2024-02-28T22:56:33.550Z,64.65
2024-02-28T22:59:02.730Z,64.75
2024-02-28T23:01:31.727Z,64.83
2024-02-28T23:04:01.063Z,64.74
2024-02-28T23:06:30.005Z,64.65
2024-02-28T23:09:00.651Z,64.77
2024-02-28T23:11:29.429Z,64.72
2024-02-28T23:13:59.293Z,65.03
2024-02-28T23:16:29.428Z,64.63
2024-02-28T23:18:58.664Z,64.49
2024-02-28T23:21:27.541Z,64.51
2024-02-28T23:23:56.700Z,64.53
2024-02-28T23:26:26.867Z,64.46
2024-02-28T23:28:56.008Z,64.56
2024-02-28T23:31:24.827Z,64.88
2024-02-28T23:33:54.076Z,64.61
2024-02-28T23:36:22.883Z,64.75
2024-02-28T23:38:51.949Z,64.78
2024-02-28T23:41:20.705Z,64.50
2024-02-28T23:43:51.280Z,64.91
2024-02-28T23:46:20.140Z,64.89
2024-02-28T23:48:49.358Z,64.75
2024-02-28T23:51:19.546Z,64.65
2024-02-28T23:53:48.769Z,64.59
2024-02-28T23:56:17.592Z,64.72
2024-02-28T23:58:46.769Z,64.73
